sensor_id;sensor_type;location;lat;lon;timestamp;P1;durP1;ratioP1;P2;durP2;ratioP2
1509;SDS011;746;48.688;9.428;2023-03-04T00:00:27;69.23;;;40.83;;
1509;SDS011;746;48.688;9.428;2023-03-04T00:02:49;62.07;;;39.40;;
1509;SDS011;746;48.688;9.428;2023-03-04T00:05:12;60.60;;;38.13;;
1509;SDS011;746;48.688;9.428;2023-03-04T00:07:33;57.53;;;36.93;;
1509;SDS011;746;48.688;9.428;2023-03-04T00:09:54;55.20;;;35.67;;
1509;SDS011;746;48.688;9.428;2023-03-04T00:12:16;58.83;;;37.60;;
1509;SDS011;746;48.688;9.428;2023-03-04T00:14:37;53.93;;;36.93;;
1509;SDS011;746;48.688;9.428;2023-03-04T00:16:58;56.03;;;37.23;;
1509;SDS011;746;48.688;9.428;2023-03-04T00:19:22;58.97;;;39.10;;
1509;SDS011;746;48.688;9.428;2023-03-04T00:21:45;61.97;;;37.87;;
1509;SDS011;746;48.688;9.428;2023-03-04T00:24:06;59.73;;;38.20;;
1509;SDS011;746;48.688;9.428;2023-03-04T00:26:27;59.43;;;38.40;;
1509;SDS011;746;48.688;9.428;2023-03-04T00:28:49;60.47;;;38.03;;
1509;SDS011;746;48.688;9.428;2023-03-04T00:31:10;59.67;;;38.37;;
1509;SDS011;746;48.688;9.428;2023-03-04T00:33:31;62.07;;;38.87;;
1509;SDS011;746;48.688;9.428;2023-03-04T00:35:53;65.17;;;40.53;;
1509;SDS011;746;48.688;9.428;2023-03-04T00:38:15;63.87;;;38.83;;
1509;SDS011;746;48.688;9.428;2023-03-04T00:40:36;60.43;;;38.03;;
1509;SDS011;746;48.688;9.428;2023-03-04T00:42:58;58.70;;;38.33;;
1509;SDS011;746;48.688;9.428;2023-03-04T00:45:19;59.40;;;37.33;;
1509;SDS011;746;48.688;9.428;2023-03-04T00:47:40;57.63;;;37.60;;
1509;SDS011;746;48.688;9.428;2023-03-04T00:50:02;59.97;;;39.00;;
1509;SDS011;746;48.688;9.428;2023-03-04T00:52:23;64.90;;;39.20;;
1509;SDS011;746;48.688;9.428;2023-03-04T00:54:46;60.80;;;38.87;;
1509;SDS011;746;48.688;9.428;2023-03-04T00:57:07;58.57;;;37.30;;
1509;SDS011;746;48.688;9.428;2023-03-04T00:59:28;56.47;;;36.63;;
1509;SDS011;746;48.688;9.428;2023-03-04T01:01:50;60.00;;;37.60;;
1509;SDS011;746;48.688;9.428;2023-03-04T01:04:11;62.90;;;37.50;;
1509;SDS011;746;48.688;9.428;2023-03-04T01:06:32;63.87;;;38.43;;
1509;SDS011;746;48.688;9.428;2023-03-04T01:08:53;58.73;;;37.87;;
1509;SDS011;746;48.688;9.428;2023-03-04T01:11:16;59.80;;;36.47;;
1509;SDS011;746;48.688;9.428;2023-03-04T01:13:37;60.63;;;37.57;;
1509;SDS011;746;48.688;9.428;2023-03-04T01:15:58;58.10;;;38.23;;
1509;SDS011;746;48.688;9.428;2023-03-04T01:18:20;60.00;;;37.30;;
1509;SDS011;746;48.688;9.428;2023-03-04T01:20:41;57.77;;;36.30;;
1509;SDS011;746;48.688;9.428;2023-03-04T01:23:02;51.33;;;34.07;;
1509;SDS011;746;48.688;9.428;2023-03-04T01:25:24;55.27;;;35.27;;
1509;SDS011;746;48.688;9.428;2023-03-04T01:27:46;58.07;;;35.13;;
1509;SDS011;746;48.688;9.428;2023-03-04T01:30:08;57.23;;;36.30;;
1509;SDS011;746;48.688;9.428;2023-03-04T01:32:30;53.40;;;35.33;;
1509;SDS011;746;48.688;9.428;2023-03-04T01:34:51;62.20;;;34.87;;
1509;SDS011;746;48.688;9.428;2023-03-04T01:37:12;56.67;;;35.73;;
1509;SDS011;746;48.688;9.428;2023-03-04T01:39:34;60.07;;;36.77;;
1509;SDS011;746;48.688;9.428;2023-03-04T01:41:55;60.07;;;36.37;;
1509;SDS011;746;48.688;9.428;2023-03-04T01:44:18;60.23;;;35.53;;
1509;SDS011;746;48.688;9.428;2023-03-04T01:46:39;58.53;;;36.00;;
1509;SDS011;746;48.688;9.428;2023-03-04T01:49:02;55.77;;;35.47;;
1509;SDS011;746;48.688;9.428;2023-03-04T01:51:23;55.20;;;35.43;;
1509;SDS011;746;48.688;9.428;2023-03-04T01:53:45;58.77;;;36.47;;
1509;SDS011;746;48.688;9.428;2023-03-04T01:56:10;59.37;;;36.17;;
1509;SDS011;746;48.688;9.428;2023-03-04T01:58:32;53.83;;;35.07;;
1509;SDS011;746;48.688;9.428;2023-03-04T02:00:55;53.57;;;35.10;;
1509;SDS011;746;48.688;9.428;2023-03-04T02:03:17;56.53;;;36.43;;
1509;SDS011;746;48.688;9.428;2023-03-04T02:05:40;56.10;;;34.83;;
1509;SDS011;746;48.688;9.428;2023-03-04T02:08:02;59.90;;;37.23;;
1509;SDS011;746;48.688;9.428;2023-03-04T02:10:23;55.97;;;35.80;;
1509;SDS011;746;48.688;9.428;2023-03-04T02:12:45;56.93;;;35.33;;
1509;SDS011;746;48.688;9.428;2023-03-04T02:15:06;56.30;;;35.90;;
1509;SDS011;746;48.688;9.428;2023-03-04T02:17:30;55.23;;;34.87;;
1509;SDS011;746;48.688;9.428;2023-03-04T02:19:52;57.60;;;36.10;;
1509;SDS011;746;48.688;9.428;2023-03-04T02:22:16;57.03;;;35.50;;
1509;SDS011;746;48.688;9.428;2023-03-04T02:24:38;56.00;;;35.77;;
1509;SDS011;746;48.688;9.428;2023-03-04T02:27:02;58.87;;;36.07;;
1509;SDS011;746;48.688;9.428;2023-03-04T02:29:23;56.53;;;35.37;;
1509;SDS011;746;48.688;9.428;2023-03-04T02:31:44;57.20;;;36.17;;
1509;SDS011;746;48.688;9.428;2023-03-04T02:34:10;55.03;;;33.97;;
1509;SDS011;746;48.688;9.428;2023-03-04T02:36:31;57.87;;;34.70;;
1509;SDS011;746;48.688;9.428;2023-03-04T02:38:53;56.97;;;35.93;;
1509;SDS011;746;48.688;9.428;2023-03-04T02:41:15;56.33;;;35.53;;
1509;SDS011;746;48.688;9.428;2023-03-04T02:43:39;58.77;;;36.23;;
1509;SDS011;746;48.688;9.428;2023-03-04T02:46:01;55.70;;;36.00;;
1509;SDS011;746;48.688;9.428;2023-03-04T02:48:22;56.33;;;35.77;;
1509;SDS011;746;48.688;9.428;2023-03-04T02:50:44;58.03;;;36.43;;
1509;SDS011;746;48.688;9.428;2023-03-04T02:53:06;58.13;;;35.10;;
1509;SDS011;746;48.688;9.428;2023-03-04T02:55:27;58.10;;;35.53;;
1509;SDS011;746;48.688;9.428;2023-03-04T02:57:48;57.47;;;35.53;;
1509;SDS011;746;48.688;9.428;2023-03-04T03:00:12;54.27;;;34.10;;
1509;SDS011;746;48.688;9.428;2023-03-04T03:02:33;54.50;;;34.90;;
1509;SDS011;746;48.688;9.428;2023-03-04T03:04:55;56.73;;;35.37;;
1509;SDS011;746;48.688;9.428;2023-03-04T03:07:16;57.37;;;36.47;;
1509;SDS011;746;48.688;9.428;2023-03-04T03:09:38;56.07;;;35.77;;
1509;SDS011;746;48.688;9.428;2023-03-04T03:11:59;60.67;;;35.33;;
1509;SDS011;746;48.688;9.428;2023-03-04T03:14:21;53.57;;;34.50;;
1509;SDS011;746;48.688;9.428;2023-03-04T03:16:44;53.63;;;32.67;;
1509;SDS011;746;48.688;9.428;2023-03-04T03:19:05;52.13;;;33.70;;
1509;SDS011;746;48.688;9.428;2023-03-04T03:21:26;58.90;;;35.37;;
1509;SDS011;746;48.688;9.428;2023-03-04T03:23:48;56.27;;;34.93;;
1509;SDS011;746;48.688;9.428;2023-03-04T03:26:09;57.47;;;35.20;;
1509;SDS011;746;48.688;9.428;2023-03-04T03:28:30;53.50;;;34.57;;
1509;SDS011;746;48.688;9.428;2023-03-04T03:30:51;53.83;;;33.50;;
1509;SDS011;746;48.688;9.428;2023-03-04T03:33:13;57.77;;;33.90;;
1509;SDS011;746;48.688;9.428;2023-03-04T03:35:35;57.80;;;35.00;;
1509;SDS011;746;48.688;9.428;2023-03-04T03:37:56;55.70;;;33.27;;
1509;SDS011;746;48.688;9.428;2023-03-04T03:40:17;57.97;;;34.53;;
1509;SDS011;746;48.688;9.428;2023-03-04T03:42:39;58.50;;;35.10;;
1509;SDS011;746;48.688;9.428;2023-03-04T03:45:00;58.53;;;35.07;;
1509;SDS011;746;48.688;9.428;2023-03-04T03:47:21;57.43;;;34.37;;
1509;SDS011;746;48.688;9.428;2023-03-04T03:49:44;52.13;;;34.00;;
1509;SDS011;746;48.688;9.428;2023-03-04T03:52:05;53.20;;;33.80;;
1509;SDS011;746;48.688;9.428;2023-03-04T03:54:27;57.20;;;33.53;;
1509;SDS011;746;48.688;9.428;2023-03-04T03:56:49;58.57;;;34.90;;
1509;SDS011;746;48.688;9.428;2023-03-04T03:59:10;48.60;;;32.10;;
1509;SDS011;746;48.688;9.428;2023-03-04T04:01:31;57.13;;;33.83;;
1509;SDS011;746;48.688;9.428;2023-03-04T04:03:53;52.77;;;33.90;;
1509;SDS011;746;48.688;9.428;2023-03-04T04:06:16;58.60;;;34.43;;
1509;SDS011;746;48.688;9.428;2023-03-04T04:08:37;54.13;;;33.37;;
1509;SDS011;746;48.688;9.428;2023-03-04T04:10:58;53.73;;;32.73;;
1509;SDS011;746;48.688;9.428;2023-03-04T04:13:19;49.20;;;32.33;;
1509;SDS011;746;48.688;9.428;2023-03-04T04:15:40;58.33;;;34.77;;
1509;SDS011;746;48.688;9.428;2023-03-04T04:18:02;58.03;;;35.37;;
1509;SDS011;746;48.688;9.428;2023-03-04T04:20:23;57.30;;;33.77;;
1509;SDS011;746;48.688;9.428;2023-03-04T04:22:46;57.93;;;34.80;;
1509;SDS011;746;48.688;9.428;2023-03-04T04:25:08;58.53;;;34.50;;
1509;SDS011;746;48.688;9.428;2023-03-04T04:27:29;59.70;;;36.43;;
1509;SDS011;746;48.688;9.428;2023-03-04T04:29:51;62.50;;;36.00;;
1509;SDS011;746;48.688;9.428;2023-03-04T04:32:12;59.67;;;35.83;;
1509;SDS011;746;48.688;9.428;2023-03-04T04:34:33;59.83;;;35.47;;
1509;SDS011;746;48.688;9.428;2023-03-04T04:36:55;58.00;;;35.80;;
1509;SDS011;746;48.688;9.428;2023-03-04T04:39:17;61.30;;;35.73;;
1509;SDS011;746;48.688;9.428;2023-03-04T04:41:40;58.73;;;35.93;;
1509;SDS011;746;48.688;9.428;2023-03-04T04:44:01;58.23;;;35.73;;
1509;SDS011;746;48.688;9.428;2023-03-04T04:46:22;55.07;;;33.93;;
1509;SDS011;746;48.688;9.428;2023-03-04T04:48:44;56.03;;;34.47;;
1509;SDS011;746;48.688;9.428;2023-03-04T04:51:05;57.43;;;34.90;;
1509;SDS011;746;48.688;9.428;2023-03-04T04:53:27;55.67;;;34.10;;
1509;SDS011;746;48.688;9.428;2023-03-04T04:55:50;55.57;;;34.60;;
1509;SDS011;746;48.688;9.428;2023-03-04T04:58:11;56.57;;;34.93;;
1509;SDS011;746;48.688;9.428;2023-03-04T05:00:32;57.83;;;34.20;;
1509;SDS011;746;48.688;9.428;2023-03-04T05:02:54;52.77;;;33.50;;
1509;SDS011;746;48.688;9.428;2023-03-04T05:05:15;52.13;;;32.83;;
1509;SDS011;746;48.688;9.428;2023-03-04T05:07:36;58.77;;;33.60;;
1509;SDS011;746;48.688;9.428;2023-03-04T05:09:57;58.47;;;33.17;;
1509;SDS011;746;48.688;9.428;2023-03-04T05:12:20;50.77;;;32.30;;
1509;SDS011;746;48.688;9.428;2023-03-04T05:14:41;51.87;;;32.63;;
1509;SDS011;746;48.688;9.428;2023-03-04T05:17:03;58.17;;;33.93;;
1509;SDS011;746;48.688;9.428;2023-03-04T05:19:24;54.20;;;33.77;;
1509;SDS011;746;48.688;9.428;2023-03-04T05:21:46;57.93;;;35.20;;
1509;SDS011;746;48.688;9.428;2023-03-04T05:24:07;59.53;;;35.97;;
1509;SDS011;746;48.688;9.428;2023-03-04T05:26:28;55.73;;;34.17;;
1509;SDS011;746;48.688;9.428;2023-03-04T05:28:51;53.80;;;34.17;;
1509;SDS011;746;48.688;9.428;2023-03-04T05:31:12;57.63;;;34.33;;
1509;SDS011;746;48.688;9.428;2023-03-04T05:33:34;54.40;;;34.27;;
1509;SDS011;746;48.688;9.428;2023-03-04T05:35:55;58.13;;;34.73;;
1509;SDS011;746;48.688;9.428;2023-03-04T05:38:18;58.20;;;34.07;;
1509;SDS011;746;48.688;9.428;2023-03-04T05:40:40;57.20;;;34.47;;
1509;SDS011;746;48.688;9.428;2023-03-04T05:43:02;61.17;;;35.37;;
1509;SDS011;746;48.688;9.428;2023-03-04T05:45:25;57.77;;;34.57;;
1509;SDS011;746;48.688;9.428;2023-03-04T05:47:46;57.27;;;34.13;;
1509;SDS011;746;48.688;9.428;2023-03-04T05:50:08;58.70;;;33.83;;
1509;SDS011;746;48.688;9.428;2023-03-04T05:52:29;56.13;;;33.40;;
1509;SDS011;746;48.688;9.428;2023-03-04T05:54:50;52.50;;;31.93;;
1509;SDS011;746;48.688;9.428;2023-03-04T05:57:12;55.50;;;33.57;;
1509;SDS011;746;48.688;9.428;2023-03-04T05:59:33;56.43;;;33.93;;
1509;SDS011;746;48.688;9.428;2023-03-04T06:01:56;56.70;;;32.83;;
1509;SDS011;746;48.688;9.428;2023-03-04T06:04:17;54.93;;;33.27;;
1509;SDS011;746;48.688;9.428;2023-03-04T06:06:38;54.07;;;32.53;;
1509;SDS011;746;48.688;9.428;2023-03-04T06:09:00;59.60;;;33.60;;
1509;SDS011;746;48.688;9.428;2023-03-04T06:11:22;51.13;;;31.80;;
1509;SDS011;746;48.688;9.428;2023-03-04T06:13:43;55.53;;;33.23;;
1509;SDS011;746;48.688;9.428;2023-03-04T06:16:05;52.83;;;32.90;;
1509;SDS011;746;48.688;9.428;2023-03-04T06:18:28;51.07;;;31.93;;
1509;SDS011;746;48.688;9.428;2023-03-04T06:20:49;54.97;;;32.50;;
1509;SDS011;746;48.688;9.428;2023-03-04T06:23:10;50.27;;;32.13;;
1509;SDS011;746;48.688;9.428;2023-03-04T06:25:32;56.83;;;32.67;;
1509;SDS011;746;48.688;9.428;2023-03-04T06:27:53;53.30;;;32.63;;
1509;SDS011;746;48.688;9.428;2023-03-04T06:30:14;49.90;;;32.13;;
1509;SDS011;746;48.688;9.428;2023-03-04T06:32:35;54.23;;;34.33;;
1509;SDS011;746;48.688;9.428;2023-03-04T06:34:58;49.70;;;31.67;;
1509;SDS011;746;48.688;9.428;2023-03-04T06:37:19;51.17;;;32.57;;
1509;SDS011;746;48.688;9.428;2023-03-04T06:39:40;57.23;;;34.27;;
1509;SDS011;746;48.688;9.428;2023-03-04T06:42:02;52.50;;;33.20;;
1509;SDS011;746;48.688;9.428;2023-03-04T06:44:23;51.87;;;33.27;;
1509;SDS011;746;48.688;9.428;2023-03-04T06:46:45;56.77;;;34.57;;
1509;SDS011;746;48.688;9.428;2023-03-04T06:49:06;53.67;;;34.23;;
1509;SDS011;746;48.688;9.428;2023-03-04T06:51:30;55.70;;;33.33;;
1509;SDS011;746;48.688;9.428;2023-03-04T06:53:51;59.40;;;34.83;;
1509;SDS011;746;48.688;9.428;2023-03-04T06:56:12;52.77;;;33.63;;
1509;SDS011;746;48.688;9.428;2023-03-04T06:58:34;52.90;;;32.73;;
1509;SDS011;746;48.688;9.428;2023-03-04T07:00:56;49.53;;;31.60;;
1509;SDS011;746;48.688;9.428;2023-03-04T07:03:17;51.27;;;32.43;;
1509;SDS011;746;48.688;9.428;2023-03-04T07:05:38;54.00;;;32.53;;
1509;SDS011;746;48.688;9.428;2023-03-04T07:08:01;56.40;;;34.00;;
1509;SDS011;746;48.688;9.428;2023-03-04T07:10:22;56.33;;;35.47;;
1509;SDS011;746;48.688;9.428;2023-03-04T07:12:43;55.63;;;36.13;;
1509;SDS011;746;48.688;9.428;2023-03-04T07:15:05;58.23;;;36.30;;
1509;SDS011;746;48.688;9.428;2023-03-04T07:17:26;55.50;;;35.77;;
1509;SDS011;746;48.688;9.428;2023-03-04T07:19:48;61.90;;;37.13;;
1509;SDS011;746;48.688;9.428;2023-03-04T07:22:09;63.90;;;39.10;;
1509;SDS011;746;48.688;9.428;2023-03-04T07:24:32;61.63;;;39.67;;
1509;SDS011;746;48.688;9.428;2023-03-04T07:26:53;64.63;;;40.10;;
1509;SDS011;746;48.688;9.428;2023-03-04T07:29:15;63.00;;;38.73;;
1509;SDS011;746;48.688;9.428;2023-03-04T07:31:36;64.17;;;38.83;;
1509;SDS011;746;48.688;9.428;2023-03-04T07:33:58;52.83;;;34.20;;
1509;SDS011;746;48.688;9.428;2023-03-04T07:36:19;53.20;;;32.77;;
1509;SDS011;746;48.688;9.428;2023-03-04T07:38:42;53.77;;;32.07;;
1509;SDS011;746;48.688;9.428;2023-03-04T07:41:04;52.37;;;34.90;;
1509;SDS011;746;48.688;9.428;2023-03-04T07:43:25;52.07;;;34.27;;
1509;SDS011;746;48.688;9.428;2023-03-04T07:45:46;51.07;;;33.70;;
1509;SDS011;746;48.688;9.428;2023-03-04T07:48:08;50.80;;;33.77;;
1509;SDS011;746;48.688;9.428;2023-03-04T07:50:29;56.57;;;35.60;;
1509;SDS011;746;48.688;9.428;2023-03-04T07:52:50;54.97;;;35.67;;
1509;SDS011;746;48.688;9.428;2023-03-04T07:55:13;55.83;;;36.07;;
1509;SDS011;746;48.688;9.428;2023-03-04T07:57:36;55.17;;;35.57;;
1509;SDS011;746;48.688;9.428;2023-03-04T07:59:58;50.57;;;35.17;;
1509;SDS011;746;48.688;9.428;2023-03-04T08:02:19;51.40;;;34.03;;
1509;SDS011;746;48.688;9.428;2023-03-04T08:04:41;50.87;;;33.80;;
1509;SDS011;746;48.688;9.428;2023-03-04T08:07:02;51.63;;;35.17;;
1509;SDS011;746;48.688;9.428;2023-03-04T08:09:23;51.20;;;34.13;;
1509;SDS011;746;48.688;9.428;2023-03-04T08:11:44;51.93;;;34.40;;
1509;SDS011;746;48.688;9.428;2023-03-04T08:14:07;50.33;;;33.67;;
1509;SDS011;746;48.688;9.428;2023-03-04T08:16:29;49.53;;;33.53;;
1509;SDS011;746;48.688;9.428;2023-03-04T08:18:51;50.47;;;34.63;;
1509;SDS011;746;48.688;9.428;2023-03-04T08:21:13;48.80;;;33.00;;
1509;SDS011;746;48.688;9.428;2023-03-04T08:23:34;51.53;;;33.97;;
1509;SDS011;746;48.688;9.428;2023-03-04T08:25:55;50.53;;;33.50;;
1509;SDS011;746;48.688;9.428;2023-03-04T08:28:17;45.30;;;31.60;;
1509;SDS011;746;48.688;9.428;2023-03-04T08:30:40;46.63;;;30.63;;
1509;SDS011;746;48.688;9.428;2023-03-04T08:33:01;44.03;;;29.63;;
1509;SDS011;746;48.688;9.428;2023-03-04T08:35:23;44.60;;;30.47;;
1509;SDS011;746;48.688;9.428;2023-03-04T08:37:44;40.60;;;27.57;;
1509;SDS011;746;48.688;9.428;2023-03-04T08:40:06;42.87;;;28.67;;
1509;SDS011;746;48.688;9.428;2023-03-04T08:42:28;42.83;;;28.67;;
1509;SDS011;746;48.688;9.428;2023-03-04T08:44:49;39.90;;;28.50;;
1509;SDS011;746;48.688;9.428;2023-03-04T08:47:12;44.43;;;26.43;;
1509;SDS011;746;48.688;9.428;2023-03-04T08:49:34;41.73;;;26.47;;
1509;SDS011;746;48.688;9.428;2023-03-04T08:51:55;41.80;;;27.17;;
1509;SDS011;746;48.688;9.428;2023-03-04T08:54:17;40.97;;;26.47;;
1509;SDS011;746;48.688;9.428;2023-03-04T08:56:39;37.77;;;25.30;;
1509;SDS011;746;48.688;9.428;2023-03-04T08:59:00;41.07;;;26.03;;
1509;SDS011;746;48.688;9.428;2023-03-04T09:01:21;50.57;;;32.43;;
1509;SDS011;746;48.688;9.428;2023-03-04T09:03:44;41.23;;;25.30;;
1509;SDS011;746;48.688;9.428;2023-03-04T09:06:06;79.40;;;43.80;;
1509;SDS011;746;48.688;9.428;2023-03-04T09:08:27;48.73;;;28.90;;
1509;SDS011;746;48.688;9.428;2023-03-04T09:10:50;65.53;;;36.30;;
1509;SDS011;746;48.688;9.428;2023-03-04T09:13:12;40.17;;;24.43;;
1509;SDS011;746;48.688;9.428;2023-03-04T09:15:34;42.93;;;26.80;;
1509;SDS011;746;48.688;9.428;2023-03-04T09:17:55;131.63;;;60.00;;
1509;SDS011;746;48.688;9.428;2023-03-04T09:20:18;44.83;;;25.40;;
1509;SDS011;746;48.688;9.428;2023-03-04T09:22:40;37.70;;;23.07;;
1509;SDS011;746;48.688;9.428;2023-03-04T09:25:01;38.07;;;23.37;;
1509;SDS011;746;48.688;9.428;2023-03-04T09:27:22;33.57;;;21.43;;
1509;SDS011;746;48.688;9.428;2023-03-04T09:29:44;32.83;;;19.70;;
1509;SDS011;746;48.688;9.428;2023-03-04T09:32:05;32.20;;;20.17;;
1509;SDS011;746;48.688;9.428;2023-03-04T09:34:26;39.70;;;24.10;;
1509;SDS011;746;48.688;9.428;2023-03-04T09:36:49;36.60;;;21.87;;
1509;SDS011;746;48.688;9.428;2023-03-04T09:39:10;32.27;;;19.67;;
1509;SDS011;746;48.688;9.428;2023-03-04T09:41:33;30.17;;;19.73;;
1509;SDS011;746;48.688;9.428;2023-03-04T09:43:56;30.47;;;19.00;;
1509;SDS011;746;48.688;9.428;2023-03-04T09:46:21;30.37;;;19.30;;
1509;SDS011;746;48.688;9.428;2023-03-04T09:48:43;31.00;;;19.20;;
1509;SDS011;746;48.688;9.428;2023-03-04T09:51:07;28.67;;;18.03;;
1509;SDS011;746;48.688;9.428;2023-03-04T09:53:33;32.77;;;20.90;;
1509;SDS011;746;48.688;9.428;2023-03-04T09:55:57;31.03;;;19.83;;
1509;SDS011;746;48.688;9.428;2023-03-04T09:58:24;31.57;;;20.00;;
1509;SDS011;746;48.688;9.428;2023-03-04T10:00:49;32.03;;;19.83;;
1509;SDS011;746;48.688;9.428;2023-03-04T10:03:14;31.20;;;20.13;;
1509;SDS011;746;48.688;9.428;2023-03-04T10:05:36;29.67;;;19.43;;
1509;SDS011;746;48.688;9.428;2023-03-04T10:07:59;29.73;;;19.53;;
1509;SDS011;746;48.688;9.428;2023-03-04T10:10:28;32.57;;;21.00;;
1509;SDS011;746;48.688;9.428;2023-03-04T10:12:50;41.93;;;26.17;;
1509;SDS011;746;48.688;9.428;2023-03-04T10:15:17;46.83;;;28.57;;
1509;SDS011;746;48.688;9.428;2023-03-04T10:17:42;44.27;;;27.70;;
1509;SDS011;746;48.688;9.428;2023-03-04T10:20:06;36.13;;;22.30;;
1509;SDS011;746;48.688;9.428;2023-03-04T10:22:29;35.73;;;22.13;;
1509;SDS011;746;48.688;9.428;2023-03-04T10:24:52;33.37;;;21.60;;
1509;SDS011;746;48.688;9.428;2023-03-04T10:27:16;36.53;;;23.83;;
1509;SDS011;746;48.688;9.428;2023-03-04T10:29:38;35.73;;;21.53;;
1509;SDS011;746;48.688;9.428;2023-03-04T10:31:59;38.23;;;22.17;;
1509;SDS011;746;48.688;9.428;2023-03-04T10:34:21;36.63;;;21.73;;
1509;SDS011;746;48.688;9.428;2023-03-04T10:36:44;36.30;;;22.63;;
1509;SDS011;746;48.688;9.428;2023-03-04T10:39:08;35.57;;;22.47;;
1509;SDS011;746;48.688;9.428;2023-03-04T10:41:30;30.87;;;20.97;;
1509;SDS011;746;48.688;9.428;2023-03-04T10:43:59;32.80;;;21.07;;
1509;SDS011;746;48.688;9.428;2023-03-04T10:46:21;33.83;;;21.27;;
1509;SDS011;746;48.688;9.428;2023-03-04T10:48:44;33.57;;;21.63;;
1509;SDS011;746;48.688;9.428;2023-03-04T10:51:10;33.00;;;21.53;;
1509;SDS011;746;48.688;9.428;2023-03-04T10:53:32;34.40;;;22.67;;
1509;SDS011;746;48.688;9.428;2023-03-04T10:55:57;34.40;;;21.23;;
1509;SDS011;746;48.688;9.428;2023-03-04T10:58:19;33.10;;;21.40;;
1509;SDS011;746;48.688;9.428;2023-03-04T11:00:42;34.50;;;22.83;;
1509;SDS011;746;48.688;9.428;2023-03-04T11:03:23;32.67;;;22.60;;
1509;SDS011;746;48.688;9.428;2023-03-04T11:05:48;36.77;;;23.13;;
1509;SDS011;746;48.688;9.428;2023-03-04T11:08:15;37.63;;;23.37;;
1509;SDS011;746;48.688;9.428;2023-03-04T11:10:38;35.23;;;23.73;;
1509;SDS011;746;48.688;9.428;2023-03-04T11:13:00;35.57;;;22.97;;
1509;SDS011;746;48.688;9.428;2023-03-04T11:15:21;31.73;;;22.23;;
1509;SDS011;746;48.688;9.428;2023-03-04T11:17:47;35.63;;;23.07;;
1509;SDS011;746;48.688;9.428;2023-03-04T11:20:11;32.97;;;21.23;;
1509;SDS011;746;48.688;9.428;2023-03-04T11:22:34;34.07;;;21.27;;
1509;SDS011;746;48.688;9.428;2023-03-04T11:24:56;31.50;;;21.17;;
1509;SDS011;746;48.688;9.428;2023-03-04T11:27:19;41.23;;;25.50;;
1509;SDS011;746;48.688;9.428;2023-03-04T11:29:44;33.00;;;21.57;;
1509;SDS011;746;48.688;9.428;2023-03-04T11:32:09;31.80;;;22.93;;
1509;SDS011;746;48.688;9.428;2023-03-04T11:34:36;33.70;;;23.10;;
1509;SDS011;746;48.688;9.428;2023-03-04T11:36:58;33.50;;;23.07;;
1509;SDS011;746;48.688;9.428;2023-03-04T11:39:25;32.67;;;22.17;;
1509;SDS011;746;48.688;9.428;2023-03-04T11:41:50;33.77;;;22.80;;
1509;SDS011;746;48.688;9.428;2023-03-04T11:44:13;32.07;;;22.47;;
1509;SDS011;746;48.688;9.428;2023-03-04T11:46:44;32.33;;;23.30;;
1509;SDS011;746;48.688;9.428;2023-03-04T11:51:50;31.50;;;22.53;;
1509;SDS011;746;48.688;9.428;2023-03-04T11:54:18;33.17;;;23.13;;
1509;SDS011;746;48.688;9.428;2023-03-04T11:56:42;31.57;;;23.53;;
1509;SDS011;746;48.688;9.428;2023-03-04T11:59:07;34.73;;;23.63;;
1509;SDS011;746;48.688;9.428;2023-03-04T12:01:32;36.17;;;22.57;;
1509;SDS011;746;48.688;9.428;2023-03-04T12:04:02;32.13;;;23.00;;
1509;SDS011;746;48.688;9.428;2023-03-04T12:06:29;34.37;;;24.00;;
1509;SDS011;746;48.688;9.428;2023-03-04T12:09:02;33.83;;;23.37;;
1509;SDS011;746;48.688;9.428;2023-03-04T12:11:26;34.10;;;23.73;;
1509;SDS011;746;48.688;9.428;2023-03-04T12:13:55;33.03;;;23.60;;
1509;SDS011;746;48.688;9.428;2023-03-04T12:16:26;34.40;;;23.60;;
1509;SDS011;746;48.688;9.428;2023-03-04T12:18:55;35.53;;;24.40;;
1509;SDS011;746;48.688;9.428;2023-03-04T12:21:24;34.87;;;23.17;;
1509;SDS011;746;48.688;9.428;2023-03-04T12:23:58;37.07;;;25.03;;
1509;SDS011;746;48.688;9.428;2023-03-04T12:26:26;35.73;;;24.73;;
1509;SDS011;746;48.688;9.428;2023-03-04T12:28:55;37.77;;;24.07;;
1509;SDS011;746;48.688;9.428;2023-03-04T12:31:25;36.80;;;25.90;;
1509;SDS011;746;48.688;9.428;2023-03-04T12:33:53;38.03;;;24.73;;
1509;SDS011;746;48.688;9.428;2023-03-04T12:36:21;41.73;;;24.60;;
1509;SDS011;746;48.688;9.428;2023-03-04T12:38:53;33.97;;;23.83;;
1509;SDS011;746;48.688;9.428;2023-03-04T12:44:00;39.63;;;25.80;;
1509;SDS011;746;48.688;9.428;2023-03-04T12:46:27;38.83;;;26.53;;
1509;SDS011;746;48.688;9.428;2023-03-04T12:48:55;36.77;;;25.57;;
1509;SDS011;746;48.688;9.428;2023-03-04T12:51:23;38.63;;;26.10;;
1509;SDS011;746;48.688;9.428;2023-03-04T12:53:49;36.73;;;26.23;;
1509;SDS011;746;48.688;9.428;2023-03-04T12:56:18;40.93;;;27.90;;
1509;SDS011;746;48.688;9.428;2023-03-04T12:58:42;42.63;;;27.63;;
1509;SDS011;746;48.688;9.428;2023-03-04T13:01:05;70.40;;;49.10;;
1509;SDS011;746;48.688;9.428;2023-03-04T13:03:35;43.60;;;30.10;;
1509;SDS011;746;48.688;9.428;2023-03-04T13:06:01;44.40;;;28.27;;
1509;SDS011;746;48.688;9.428;2023-03-04T13:08:27;39.60;;;28.37;;
1509;SDS011;746;48.688;9.428;2023-03-04T13:10:50;48.80;;;29.17;;
1509;SDS011;746;48.688;9.428;2023-03-04T13:15:50;44.43;;;29.70;;
1509;SDS011;746;48.688;9.428;2023-03-04T13:18:32;46.70;;;28.87;;
1509;SDS011;746;48.688;9.428;2023-03-04T13:23:29;44.30;;;27.90;;
1509;SDS011;746;48.688;9.428;2023-03-04T13:28:27;51.03;;;31.60;;
1509;SDS011;746;48.688;9.428;2023-03-04T13:33:43;42.47;;;29.63;;
1509;SDS011;746;48.688;9.428;2023-03-04T13:36:06;49.10;;;31.40;;
1509;SDS011;746;48.688;9.428;2023-03-04T13:38:54;50.40;;;31.93;;
1509;SDS011;746;48.688;9.428;2023-03-04T13:41:19;47.17;;;30.77;;
1509;SDS011;746;48.688;9.428;2023-03-04T13:43:41;46.57;;;30.00;;
1509;SDS011;746;48.688;9.428;2023-03-04T13:48:45;44.67;;;28.87;;
1509;SDS011;746;48.688;9.428;2023-03-04T13:51:22;45.47;;;29.67;;
1509;SDS011;746;48.688;9.428;2023-03-04T13:53:49;47.77;;;31.27;;
1509;SDS011;746;48.688;9.428;2023-03-04T13:56:19;49.33;;;32.60;;
1509;SDS011;746;48.688;9.428;2023-03-04T13:58:41;49.87;;;31.83;;
1509;SDS011;746;48.688;9.428;2023-03-04T14:01:03;51.47;;;31.03;;
1509;SDS011;746;48.688;9.428;2023-03-04T14:03:26;48.43;;;32.70;;
1509;SDS011;746;48.688;9.428;2023-03-04T14:08:25;50.00;;;31.93;;
1509;SDS011;746;48.688;9.428;2023-03-04T14:10:53;50.47;;;32.17;;
1509;SDS011;746;48.688;9.428;2023-03-04T14:13:14;51.03;;;32.13;;
1509;SDS011;746;48.688;9.428;2023-03-04T14:15:35;51.63;;;31.50;;
1509;SDS011;746;48.688;9.428;2023-03-04T14:17:58;50.13;;;31.07;;
1509;SDS011;746;48.688;9.428;2023-03-04T14:20:22;48.90;;;30.87;;
1509;SDS011;746;48.688;9.428;2023-03-04T14:22:44;47.13;;;31.10;;
1509;SDS011;746;48.688;9.428;2023-03-04T14:25:18;51.47;;;32.40;;
1509;SDS011;746;48.688;9.428;2023-03-04T14:27:39;52.47;;;31.93;;
1509;SDS011;746;48.688;9.428;2023-03-04T14:30:01;46.77;;;29.70;;
1509;SDS011;746;48.688;9.428;2023-03-04T14:32:24;45.83;;;29.70;;
1509;SDS011;746;48.688;9.428;2023-03-04T14:34:47;76.23;;;49.97;;
1509;SDS011;746;48.688;9.428;2023-03-04T14:37:18;52.40;;;31.70;;
1509;SDS011;746;48.688;9.428;2023-03-04T14:39:40;42.23;;;27.93;;
1509;SDS011;746;48.688;9.428;2023-03-04T14:42:06;41.33;;;26.13;;
1509;SDS011;746;48.688;9.428;2023-03-04T14:44:29;39.70;;;26.53;;
1509;SDS011;746;48.688;9.428;2023-03-04T14:46:55;44.07;;;25.80;;
1509;SDS011;746;48.688;9.428;2023-03-04T14:49:27;37.73;;;24.00;;
1509;SDS011;746;48.688;9.428;2023-03-04T14:51:49;39.60;;;23.97;;
1509;SDS011;746;48.688;9.428;2023-03-04T14:57:00;43.17;;;23.20;;